createdAt,value
2019-01-11T06:15:06.913Z,0
2019-01-11T06:15:47.427Z,0
2019-01-11T06:16:27.962Z,0
2019-01-11T06:17:08.487Z,0
2019-01-11T06:44:02.438Z,12
2019-01-11T06:44:42.967Z,16
2019-01-11T06:45:23.496Z,16
2019-01-11T06:46:04.016Z,20
2019-01-11T06:46:44.540Z,24
2019-01-11T06:47:25.065Z,24
2019-01-11T06:48:05.593Z,28
2019-01-11T06:48:46.115Z,32
2019-01-11T06:49:26.646Z,36
2019-01-11T06:50:08.563Z,40
2019-01-11T06:50:47.682Z,44
2019-01-11T06:51:28.205Z,52
2019-01-11T06:52:08.731Z,56
2019-01-11T06:52:49.266Z,60
2019-01-11T06:53:29.850Z,68
2019-01-11T06:54:10.368Z,76
2019-01-11T06:54:50.891Z,84
2019-01-11T06:55:31.406Z,96
2019-01-11T06:56:11.924Z,104
2019-01-11T06:56:52.443Z,112
2019-01-11T06:57:32.963Z,124
2019-01-11T06:58:13.488Z,132
2019-01-11T06:58:54.011Z,148
2019-01-11T06:59:34.535Z,164
2019-01-11T07:00:15.050Z,180
2019-01-11T07:00:55.583Z,196
2019-01-11T07:01:36.099Z,204
2019-01-11T07:02:16.631Z,216
2019-01-11T07:02:57.152Z,232
2019-01-11T07:03:37.674Z,248
2019-01-11T07:04:18.201Z,264
2019-01-11T07:04:58.732Z,280
2019-01-11T07:05:39.250Z,300
2019-01-11T07:06:19.773Z,324
2019-01-11T07:07:00.290Z,344
2019-01-11T07:07:40.824Z,368
2019-01-11T07:08:21.331Z,396
2019-01-11T07:09:01.859Z,428
2019-01-11T07:09:42.396Z,444
2019-01-11T07:10:22.916Z,464
2019-01-11T07:11:03.443Z,492
2019-01-11T07:11:43.965Z,520
2019-01-11T07:12:24.485Z,536
2019-01-11T07:13:05.005Z,560
2019-01-11T07:13:45.530Z,584
2019-01-11T07:14:26.050Z,608
2019-01-11T07:15:06.568Z,636
2019-01-11T07:15:47.101Z,672
2019-01-11T07:16:27.612Z,708
2019-01-11T07:17:08.150Z,744
2019-01-11T07:17:48.949Z,780
2019-01-11T07:18:29.488Z,812
2019-01-11T07:19:10.009Z,844
2019-01-11T07:19:50.569Z,884
2019-01-11T07:20:31.191Z,916
2019-01-11T07:21:11.711Z,956
2019-01-11T07:21:52.235Z,996
2019-01-11T07:22:32.758Z,1036
2019-01-11T07:23:13.287Z,1076
2019-01-11T07:23:53.798Z,1116
2019-01-11T07:24:34.326Z,1152
2019-01-11T07:25:14.844Z,1176
2019-01-11T07:25:55.375Z,1208
2019-01-11T07:26:35.885Z,1268
2019-01-11T07:27:16.407Z,1340
2019-01-11T07:27:56.928Z,1392
2019-01-11T07:28:37.451Z,1432
2019-01-11T07:29:17.971Z,1492
2019-01-11T07:29:58.493Z,1552
2019-01-11T07:30:39.014Z,1608
2019-01-11T07:31:19.534Z,1660
2019-01-11T07:32:00.054Z,1696
2019-01-11T07:32:40.573Z,1748
2019-01-11T07:33:21.100Z,1808
2019-01-11T07:34:01.624Z,1836
2019-01-11T07:34:42.155Z,1852
2019-01-11T07:35:22.677Z,1884
2019-01-11T07:36:03.200Z,1916
2019-01-11T07:36:43.723Z,1944
2019-01-11T07:37:24.244Z,1988
2019-01-11T07:38:04.764Z,2020
2019-01-11T07:38:45.290Z,2056
2019-01-11T07:39:25.809Z,2080
2019-01-11T07:40:06.333Z,2116
2019-01-11T07:40:46.857Z,2152
2019-01-11T07:41:27.378Z,2176
2019-01-11T07:42:07.898Z,2200
2019-01-11T07:42:48.415Z,2232
2019-01-11T07:43:28.946Z,2268
2019-01-11T07:44:09.454Z,2328
2019-01-11T07:44:49.973Z,2380
2019-01-11T07:45:30.500Z,2424
2019-01-11T07:46:11.029Z,2476
2019-01-11T07:46:51.553Z,2532
2019-01-11T07:47:32.071Z,2608
2019-01-11T07:48:12.607Z,2692
2019-01-11T07:48:53.130Z,2736
2019-01-11T07:49:33.648Z,2736
2019-01-11T07:50:14.162Z,2728
2019-01-11T07:50:54.687Z,2772
2019-01-11T07:51:35.208Z,2860
2019-01-11T07:52:15.732Z,2976
2019-01-11T07:52:56.261Z,3104
2019-01-11T07:53:36.770Z,3072
2019-01-11T07:54:17.292Z,3168
2019-01-11T07:54:57.812Z,3292
2019-01-11T07:55:38.340Z,3384
2019-01-11T07:56:18.865Z,3568
2019-01-11T07:56:59.385Z,3844
2019-01-11T07:57:39.909Z,3860
2019-01-11T07:58:20.433Z,3768
2019-01-11T07:59:00.959Z,3804
2019-01-11T07:59:41.485Z,3876
2019-01-11T08:00:22.014Z,4032
2019-01-11T08:01:02.537Z,4136
2019-01-11T08:01:43.057Z,4236
2019-01-11T08:02:23.583Z,4204
2019-01-11T08:03:04.109Z,4560
2019-01-11T08:03:44.636Z,4676
2019-01-11T08:04:25.158Z,4728
2019-01-11T08:05:05.679Z,4812
2019-01-11T08:05:46.204Z,4868
2019-01-11T08:06:26.722Z,4956
2019-01-11T08:07:07.257Z,4920
2019-01-11T08:07:47.777Z,5016
2019-01-11T08:08:28.310Z,5004
2019-01-11T08:09:08.833Z,5080
2019-01-11T08:09:49.357Z,5084
2019-01-11T08:10:29.877Z,5032
2019-01-11T08:11:10.403Z,5084
2019-01-11T08:11:50.923Z,5156
2019-01-11T08:12:31.443Z,5304
2019-01-11T08:13:11.968Z,5356
2019-01-11T08:13:52.492Z,5376
2019-01-11T08:14:33.011Z,5452
2019-01-11T08:15:13.530Z,5360
2019-01-11T08:15:54.038Z,5376
2019-01-11T08:16:34.563Z,5348
2019-01-11T08:17:15.085Z,5184
2019-01-11T08:17:55.605Z,5336
2019-01-11T08:18:36.138Z,4932
2019-01-11T08:19:16.679Z,4864
2019-01-11T08:19:57.214Z,5468
2019-01-11T08:20:37.742Z,5380
2019-01-11T08:21:18.268Z,5480
2019-01-11T08:21:58.782Z,5572
2019-01-11T08:22:39.308Z,5688
2019-01-11T08:23:19.826Z,5172
2019-01-11T08:24:00.350Z,4908
2019-01-11T08:24:40.869Z,4580
2019-01-11T08:25:21.410Z,4824
2019-01-11T08:26:01.945Z,4636
2019-01-11T08:26:42.436Z,4220
2019-01-11T08:27:22.954Z,3872
2019-01-11T08:28:03.477Z,3784
2019-01-11T08:28:44.001Z,3716
2019-01-11T08:29:24.524Z,3696
2019-01-11T08:30:05.061Z,3664
2019-01-11T08:30:45.580Z,3636
2019-01-11T08:31:26.098Z,3608
2019-01-11T08:32:06.616Z,3564
2019-01-11T08:32:47.143Z,3528
2019-01-11T08:33:27.665Z,3508
2019-01-11T08:34:08.194Z,3460
2019-01-11T08:34:48.710Z,3428
2019-01-11T08:35:29.240Z,3396
2019-01-11T08:36:09.764Z,3380
2019-01-11T08:36:50.285Z,3368
2019-01-11T08:37:30.808Z,3364
2019-01-11T08:38:11.342Z,3372
2019-01-11T08:38:51.865Z,3380
2019-01-11T08:39:32.647Z,3400
2019-01-11T08:40:12.906Z,3432
2019-01-11T08:40:53.436Z,3472
2019-01-11T08:41:33.962Z,3484
2019-01-11T08:42:14.479Z,3520
2019-01-11T08:42:55.010Z,3536
2019-01-11T08:43:35.532Z,3556
2019-01-11T08:44:16.050Z,3580
2019-01-11T08:44:56.574Z,3620
2019-01-11T08:45:37.108Z,3652
2019-01-11T08:46:17.622Z,3684
2019-01-11T08:46:58.142Z,3704
2019-01-11T08:47:38.661Z,3724
2019-01-11T08:48:19.180Z,3756
2019-01-11T08:48:59.711Z,3784
2019-01-11T08:49:40.237Z,3824
2019-01-11T08:50:20.752Z,3880
2019-01-11T08:51:02.702Z,3924
2019-01-11T08:51:41.810Z,3952
2019-01-11T08:52:22.327Z,3992
2019-01-11T08:53:02.843Z,4024
2019-01-11T08:53:43.368Z,4048
2019-01-11T08:54:23.888Z,4060
2019-01-11T08:55:04.417Z,4068
2019-01-11T08:55:44.935Z,4064
2019-01-11T08:56:25.459Z,4048
2019-01-11T08:57:05.985Z,4032
2019-01-11T08:57:46.502Z,4032
2019-01-11T08:58:27.030Z,4040
2019-01-11T08:59:07.550Z,4080
2019-01-11T08:59:48.078Z,4120
2019-01-11T09:00:28.597Z,4156
2019-01-11T09:01:09.116Z,4160
2019-01-11T09:01:49.636Z,4128
2019-01-11T09:02:30.163Z,4076
2019-01-11T09:03:10.680Z,4008
2019-01-11T09:03:51.215Z,3912
2019-01-11T09:04:31.746Z,3796
2019-01-11T09:05:12.270Z,3732
2019-01-11T09:05:52.788Z,3732
2019-01-11T09:06:33.311Z,3796
2019-01-11T09:07:13.823Z,3868
2019-01-11T09:07:54.344Z,3992
2019-01-11T09:08:34.866Z,4156
2019-01-11T09:09:15.388Z,4336
2019-01-11T09:09:55.913Z,5116
2019-01-11T09:10:36.436Z,5232
2019-01-11T09:11:16.960Z,5300
2019-01-11T09:11:57.485Z,5364
2019-01-11T09:12:38.002Z,5348
2019-01-11T09:13:18.526Z,5380
2019-01-11T09:13:59.048Z,5432
2019-01-11T09:14:39.571Z,5484
2019-01-11T09:15:20.107Z,5544
2019-01-11T09:16:00.624Z,5608
2019-01-11T09:16:41.144Z,5684
2019-01-11T09:17:21.677Z,5756
2019-01-11T09:18:02.196Z,5812
2019-01-11T09:18:42.716Z,5896
2019-01-11T09:19:23.232Z,5996
2019-01-11T09:20:03.751Z,6092
2019-01-11T09:20:44.281Z,6188
2019-01-11T09:21:24.792Z,6256
2019-01-11T09:22:05.312Z,6312
2019-01-11T09:22:45.830Z,6388
2019-01-11T09:23:26.366Z,6436
2019-01-11T09:24:06.887Z,6468
2019-01-11T09:24:47.404Z,6492
2019-01-11T09:25:27.931Z,6532
2019-01-11T09:26:08.451Z,6588
2019-01-11T09:26:48.973Z,6656
2019-01-11T09:27:29.490Z,6744
2019-01-11T09:28:10.009Z,6796
2019-01-11T09:28:50.539Z,6816
2019-01-11T09:29:31.064Z,6848
2019-01-11T09:30:11.592Z,6880
2019-01-11T09:30:52.117Z,6896
2019-01-11T09:31:32.647Z,6884
2019-01-11T09:32:13.173Z,6892
2019-01-11T09:32:53.697Z,6944
2019-01-11T09:33:34.220Z,7004
2019-01-11T09:34:14.740Z,7040
2019-01-11T09:34:55.261Z,7056
2019-01-11T09:35:35.788Z,7020
2019-01-11T09:36:16.315Z,6848
2019-01-11T09:36:56.834Z,6656
2019-01-11T09:37:37.368Z,6532
2019-01-11T09:38:17.929Z,6452
2019-01-11T09:38:58.417Z,6340
2019-01-11T09:39:38.944Z,6212
2019-01-11T09:40:19.474Z,6096
2019-01-11T09:41:00.023Z,5980
2019-01-11T09:41:40.547Z,5916
2019-01-11T09:42:21.551Z,5892
2019-01-11T09:43:02.994Z,5920
2019-01-11T09:43:43.859Z,5956
2019-01-11T09:44:24.389Z,6012
2019-01-11T09:45:04.916Z,6056
2019-01-11T09:45:45.445Z,6048
2019-01-11T09:46:25.958Z,6028
2019-01-11T09:47:06.489Z,6028
2019-01-11T09:47:47.014Z,6032
2019-01-11T09:48:27.539Z,6032
2019-01-11T09:49:08.061Z,6032
2019-01-11T09:49:48.590Z,6056
2019-01-11T09:50:29.103Z,6084
2019-01-11T09:51:15.524Z,6120
2019-01-11T09:51:50.146Z,6152
2019-01-11T09:52:30.676Z,6188
2019-01-11T09:53:11.200Z,6192
2019-01-11T09:53:51.724Z,6192
2019-01-11T09:54:32.246Z,6152
2019-01-11T09:55:12.771Z,6088
2019-01-11T09:55:53.303Z,6068
2019-01-11T09:56:33.830Z,6072
2019-01-11T09:57:14.478Z,6100
2019-01-11T09:57:54.994Z,6128
2019-01-11T09:58:35.530Z,6152
2019-01-11T09:59:16.058Z,6172
2019-01-11T09:59:56.592Z,6176
2019-01-11T10:00:37.126Z,6160
2019-01-11T10:01:17.668Z,6128
2019-01-11T10:01:58.204Z,6104
2019-01-11T10:02:38.832Z,6076
2019-01-11T10:03:19.274Z,6064
2019-01-11T10:03:59.807Z,6088
2019-01-11T10:04:40.332Z,6140
2019-01-11T10:05:20.858Z,6216
2019-01-11T10:06:01.492Z,6264
2019-01-11T10:06:42.176Z,6320
2019-01-11T10:07:22.743Z,6328
2019-01-11T10:08:03.265Z,6352
2019-01-11T10:08:43.790Z,6404
2019-01-11T10:09:24.309Z,6476
2019-01-11T10:10:04.831Z,6544
2019-01-11T10:10:45.351Z,6588
2019-01-11T10:11:25.877Z,6652
2019-01-11T10:12:06.408Z,6748
2019-01-11T10:12:46.935Z,6852
2019-01-11T10:13:27.460Z,6952
2019-01-11T10:14:08.013Z,7024
2019-01-11T10:14:48.528Z,7048
2019-01-11T10:15:29.060Z,7044
2019-01-11T10:16:09.590Z,7056
2019-01-11T10:16:50.114Z,7044
2019-01-11T10:17:30.633Z,7040
2019-01-11T10:18:11.153Z,7004
2019-01-11T10:18:51.736Z,6980
2019-01-11T10:19:32.252Z,6988
2019-01-11T10:20:12.783Z,7016
2019-01-11T10:20:53.309Z,7024
2019-01-11T10:21:33.840Z,7040
2019-01-11T10:22:14.360Z,7048
2019-01-11T10:22:54.884Z,7072
2019-01-11T10:23:35.402Z,7072
2019-01-11T10:24:15.923Z,7116
2019-01-11T10:24:56.444Z,7112
2019-01-11T10:25:36.977Z,7116
2019-01-11T10:26:17.490Z,7104
2019-01-11T10:26:59.027Z,7092
2019-01-11T10:27:38.540Z,7032
2019-01-11T10:28:19.072Z,6996
2019-01-11T10:28:59.616Z,6996
2019-01-11T10:29:40.282Z,6992
2019-01-11T10:30:20.848Z,7012
2019-01-11T10:31:01.390Z,7068
2019-01-11T10:31:41.916Z,7092
2019-01-11T10:32:22.467Z,7096
2019-01-11T10:33:02.989Z,7132
2019-01-11T10:33:43.523Z,7212
2019-01-11T10:34:24.043Z,7280
2019-01-11T10:35:04.576Z,7320
2019-01-11T10:35:45.110Z,7296
2019-01-11T10:36:25.626Z,7292
2019-01-11T10:37:06.167Z,7212
2019-01-11T10:37:46.705Z,7088
2019-01-11T10:38:27.231Z,7016
2019-01-11T10:39:07.750Z,7076
2019-01-11T10:39:48.307Z,7188
2019-01-11T10:40:28.873Z,7212
2019-01-11T10:41:09.401Z,7152
2019-01-11T10:41:49.932Z,7184
2019-01-11T10:42:30.447Z,7236
2019-01-11T10:43:10.976Z,7344
2019-01-11T10:43:51.500Z,7408
2019-01-11T10:44:32.014Z,7400
2019-01-11T10:45:12.539Z,7436
2019-01-11T10:45:53.065Z,7536
2019-01-11T10:46:33.576Z,7732
2019-01-11T10:47:14.099Z,7792
2019-01-11T10:47:54.644Z,7764
2019-01-11T10:48:35.169Z,7760
2019-01-11T10:49:15.705Z,7776
2019-01-11T10:49:56.331Z,7656
2019-01-11T10:50:36.891Z,7620
2019-01-11T10:51:19.024Z,7564
2019-01-11T10:51:57.927Z,7224
2019-01-11T10:52:38.445Z,7020
2019-01-11T10:53:18.969Z,7032
2019-01-11T10:53:59.524Z,7168
2019-01-11T10:54:40.043Z,7312
2019-01-11T10:55:20.563Z,7324
2019-01-11T10:56:01.087Z,7292
2019-01-11T10:56:41.607Z,7296
2019-01-11T10:57:22.149Z,7112
2019-01-11T10:58:02.660Z,6924
2019-01-11T10:58:43.177Z,7028
2019-01-11T10:59:23.701Z,6980
2019-01-11T11:00:04.220Z,6788
2019-01-11T11:00:44.740Z,6704
2019-01-11T11:01:25.268Z,6676
2019-01-11T11:02:05.795Z,7060
2019-01-11T11:02:46.334Z,7208
2019-01-11T11:03:26.864Z,6988
2019-01-11T11:04:07.388Z,6684
2019-01-11T11:04:47.914Z,6636
2019-01-11T11:05:28.435Z,6716
2019-01-11T11:06:08.965Z,6828
2019-01-11T11:06:49.497Z,6884
2019-01-11T11:07:30.013Z,7000
2019-01-11T11:08:10.548Z,6976
2019-01-11T11:08:51.071Z,6840
2019-01-11T11:09:31.603Z,7048
2019-01-11T11:10:12.126Z,7104
2019-01-11T11:10:52.645Z,7160
2019-01-11T11:11:33.177Z,7288
2019-01-11T11:12:13.815Z,7540
2019-01-11T11:12:54.334Z,7824
2019-01-11T11:13:34.845Z,7948
2019-01-11T11:14:15.372Z,8108
2019-01-11T11:14:55.881Z,8044
2019-01-11T11:15:36.397Z,7948
2019-01-11T11:16:16.944Z,7892
2019-01-11T11:16:57.495Z,7840
2019-01-11T11:17:38.047Z,7848
2019-01-11T11:18:18.611Z,7876
2019-01-11T11:18:59.157Z,7928
2019-01-11T11:19:39.705Z,8076
2019-01-11T11:20:20.409Z,8220
2019-01-11T11:21:00.967Z,8392
2019-01-11T11:21:41.493Z,8420
2019-01-11T11:22:22.062Z,8376
2019-01-11T11:23:02.754Z,8280
2019-01-11T11:23:43.917Z,8036
2019-01-11T11:24:24.455Z,7860
2019-01-11T11:25:04.985Z,7756
2019-01-11T11:25:45.514Z,7860
2019-01-11T11:26:26.038Z,7848
2019-01-11T11:27:06.562Z,7760
2019-01-11T11:27:47.085Z,7728
2019-01-11T11:28:27.611Z,7628
2019-01-11T11:29:08.136Z,7732
2019-01-11T11:29:48.667Z,7800
2019-01-11T11:30:29.189Z,7864
2019-01-11T11:31:09.711Z,7892
2019-01-11T11:31:50.234Z,7908
2019-01-11T11:32:30.756Z,8084
2019-01-11T11:33:11.285Z,8344
2019-01-11T11:33:51.805Z,8408
2019-01-11T11:34:32.329Z,8112
2019-01-11T11:35:12.854Z,8160
2019-01-11T11:35:53.383Z,8104
2019-01-11T11:36:33.905Z,7820
2019-01-11T11:37:17.724Z,7660
2019-01-11T11:37:54.953Z,7348
2019-01-11T11:38:35.479Z,7092
2019-01-11T11:39:16.007Z,7008
2019-01-11T11:39:56.549Z,7096
2019-01-11T11:40:37.054Z,7392
2019-01-11T11:41:17.568Z,7704
2019-01-11T11:41:58.082Z,8140
2019-01-11T11:42:38.604Z,8668
2019-01-11T11:43:19.124Z,9192
2019-01-11T11:43:59.645Z,9452
2019-01-11T11:44:40.169Z,9480
2019-01-11T11:45:20.695Z,9432
2019-01-11T11:46:01.217Z,9076
2019-01-11T11:46:41.739Z,8876
2019-01-11T11:47:22.272Z,8896
2019-01-11T11:48:03.813Z,8924
2019-01-11T11:48:43.311Z,8732
2019-01-11T11:49:23.935Z,8848
2019-01-11T11:50:04.456Z,8928
2019-01-11T11:50:44.983Z,8704
2019-01-11T11:51:25.499Z,8840
2019-01-11T11:52:06.025Z,8380
2019-01-11T11:52:46.580Z,8200
2019-01-11T11:53:27.148Z,8420
2019-01-11T11:54:07.678Z,8260
2019-01-11T11:54:48.206Z,7844
2019-01-11T11:55:28.728Z,7960
2019-01-11T11:56:09.252Z,8280
2019-01-11T11:56:49.779Z,8176
2019-01-11T11:57:30.308Z,7968
2019-01-11T11:58:10.829Z,8468
2019-01-11T11:58:57.903Z,8224
2019-01-11T11:59:38.427Z,8292
2019-01-11T12:00:18.951Z,8208
2019-01-11T12:00:59.476Z,7852
2019-01-11T12:01:40.005Z,7580
2019-01-11T12:02:20.539Z,7616
2019-01-11T12:03:01.065Z,7444
2019-01-11T12:03:41.580Z,7492
2019-01-11T12:04:22.101Z,7952
2019-01-11T12:05:02.627Z,8164
2019-01-11T12:05:43.151Z,8332
2019-01-11T12:06:23.677Z,8308
2019-01-11T12:07:07.561Z,8444
2019-01-11T12:07:44.732Z,8552
2019-01-11T12:08:25.256Z,8584
2019-01-11T12:09:05.775Z,8760
2019-01-11T12:09:46.296Z,8812
2019-01-11T12:10:26.820Z,8908
2019-01-11T12:11:07.369Z,8908
2019-01-11T12:11:47.883Z,8808
2019-01-11T12:12:28.427Z,8712
2019-01-11T12:13:08.956Z,8536
2019-01-11T12:13:49.478Z,8432
2019-01-11T12:14:30.011Z,8272
2019-01-11T12:15:10.532Z,8100
2019-01-11T12:15:51.059Z,7952
2019-01-11T12:16:31.587Z,7740
2019-01-11T12:17:12.110Z,7532
2019-01-11T12:17:52.645Z,7308
2019-01-11T12:18:33.192Z,7156
2019-01-11T12:19:13.722Z,7232
2019-01-11T12:19:57.069Z,7252
2019-01-11T12:20:34.772Z,7184
2019-01-11T12:21:15.289Z,7000
2019-01-11T12:22:01.480Z,7124
2019-01-11T12:22:36.345Z,7060
2019-01-11T12:23:16.883Z,6932
2019-01-11T12:23:57.414Z,6744
2019-01-11T12:24:37.939Z,6600
2019-01-11T12:25:18.463Z,6476
2019-01-11T12:25:58.987Z,6264
2019-01-11T12:26:39.517Z,6136
2019-01-11T12:27:20.043Z,6004
2019-01-11T12:28:00.572Z,5920
2019-01-11T12:28:41.082Z,5872
2019-01-11T12:29:21.610Z,5864
2019-01-11T12:30:02.143Z,5832
2019-01-11T12:30:42.665Z,5796
2019-01-11T12:31:23.192Z,5800
2019-01-11T12:32:03.710Z,5792
2019-01-11T12:32:44.238Z,5792
2019-01-11T12:33:24.766Z,5776
2019-01-11T12:34:05.297Z,5804
2019-01-11T12:34:45.809Z,5780
2019-01-11T12:35:26.330Z,5736
2019-01-11T12:36:06.864Z,5688
2019-01-11T12:36:47.388Z,5632
2019-01-11T12:37:27.917Z,5552
2019-01-11T12:38:13.614Z,5552
2019-01-11T12:38:48.963Z,5516
2019-01-11T12:39:29.488Z,5436
2019-01-11T12:40:10.019Z,5328
2019-01-11T12:40:50.539Z,5204
2019-01-11T12:41:31.064Z,5116
2019-01-11T12:42:13.258Z,5068
2019-01-11T12:42:52.117Z,5092
2019-01-11T12:43:32.644Z,5168
2019-01-11T12:44:13.174Z,5296
2019-01-11T12:44:53.692Z,5452
2019-01-11T12:45:34.223Z,5596
2019-01-11T12:46:14.754Z,5652
2019-01-11T12:46:55.277Z,5820
2019-01-11T12:47:35.806Z,5900
2019-01-11T12:48:16.317Z,6016
2019-01-11T12:48:56.861Z,6084
2019-01-11T12:49:37.383Z,6032
2019-01-11T12:50:17.906Z,6020
2019-01-11T12:50:58.432Z,5968
2019-01-11T12:51:38.954Z,5848
2019-01-11T12:52:19.480Z,5680
2019-01-11T12:52:59.997Z,5540
2019-01-11T12:53:40.558Z,5364
2019-01-11T12:54:21.060Z,5200
2019-01-11T12:55:01.587Z,5056
2019-01-11T12:55:42.111Z,4944
2019-01-11T12:56:23.846Z,4884
2019-01-11T12:57:04.372Z,4908
2019-01-11T12:57:44.911Z,4956
2019-01-11T12:58:25.446Z,5016
2019-01-11T12:59:05.976Z,5040
2019-01-11T12:59:46.499Z,5012
2019-01-11T13:00:27.021Z,4940
2019-01-11T13:01:07.545Z,4840
2019-01-11T13:01:48.056Z,4724
2019-01-11T13:02:28.596Z,4656
2019-01-11T13:03:09.116Z,4660
2019-01-11T13:03:49.652Z,4740
2019-01-11T13:04:30.187Z,4888
2019-01-11T13:05:10.709Z,5072
2019-01-11T13:05:51.230Z,5264
2019-01-11T13:06:31.755Z,5440
2019-01-11T13:07:12.289Z,5628
2019-01-11T13:07:52.818Z,5744
2019-01-11T13:08:33.351Z,5808
2019-01-11T13:09:13.880Z,5828
2019-01-11T13:09:54.400Z,5856
2019-01-11T13:10:34.944Z,5856
2019-01-11T13:11:15.477Z,5836
2019-01-11T13:11:56.010Z,5780
2019-01-11T13:12:36.536Z,5712
2019-01-11T13:13:17.068Z,5616
2019-01-11T13:13:57.599Z,5516
2019-01-11T13:14:38.140Z,5388
2019-01-11T13:15:18.669Z,5272
2019-01-11T13:15:59.196Z,5164
2019-01-11T13:16:39.727Z,5072
2019-01-11T13:17:20.245Z,5008
2019-01-11T13:18:00.776Z,4948
2019-01-11T13:18:41.303Z,4952
2019-01-11T13:19:21.833Z,4964
2019-01-11T13:20:02.354Z,5040
2019-01-11T13:20:42.884Z,5092
2019-01-11T13:21:23.413Z,5156
2019-01-11T13:22:03.941Z,5204
2019-01-11T13:22:44.476Z,5196
2019-01-11T13:23:25.010Z,5204
2019-01-11T13:24:05.531Z,5344
2019-01-11T13:24:46.060Z,5464
2019-01-11T13:25:32.059Z,5596
2019-01-11T13:26:07.123Z,5692
2019-01-11T13:26:47.656Z,5696
2019-01-11T13:27:28.180Z,5672
2019-01-11T13:28:08.727Z,5604
2019-01-11T13:28:49.270Z,5500
2019-01-11T13:29:29.809Z,5388
2019-01-11T13:30:10.338Z,5300
2019-01-11T13:30:50.867Z,5204
2019-01-11T13:31:31.386Z,5088
2019-01-11T13:32:11.920Z,5012
2019-01-11T13:32:52.451Z,4908
2019-01-11T13:33:32.987Z,4764
2019-01-11T13:34:13.517Z,4620
2019-01-11T13:34:54.042Z,4468
2019-01-11T13:35:34.575Z,4316
2019-01-11T13:36:15.109Z,4196
2019-01-11T13:36:55.652Z,4092
2019-01-11T13:37:36.173Z,4004
2019-01-11T13:38:16.716Z,3936
2019-01-11T13:38:57.239Z,3860
2019-01-11T13:39:38.007Z,3808
2019-01-11T13:40:18.329Z,3756
2019-01-11T13:40:58.888Z,3696
2019-01-11T13:41:39.451Z,3700
2019-01-11T13:42:19.988Z,3676
2019-01-11T13:43:00.522Z,3632
2019-01-11T13:43:41.107Z,3600
2019-01-11T13:44:21.673Z,3536
2019-01-11T13:45:02.248Z,3448
2019-01-11T13:45:42.811Z,3388
2019-01-11T13:46:23.360Z,3352
2019-01-11T13:47:03.931Z,3268
2019-01-11T13:47:44.483Z,3208
2019-01-11T13:48:25.050Z,3228
2019-01-11T13:49:05.594Z,3268
2019-01-11T13:49:46.134Z,3332
2019-01-11T13:50:26.654Z,3356
2019-01-11T13:51:07.206Z,3452
2019-01-11T13:51:47.753Z,3560
2019-01-11T13:52:28.284Z,3716
2019-01-11T13:53:08.813Z,3904
2019-01-11T13:53:49.339Z,4120
2019-01-11T13:54:29.880Z,4232
2019-01-11T13:55:10.426Z,4304
2019-01-11T13:55:50.977Z,4240
2019-01-11T13:56:31.506Z,4136
2019-01-11T13:57:12.052Z,3972
2019-01-11T13:57:52.592Z,3812
2019-01-11T13:58:33.156Z,3744
2019-01-11T13:59:13.651Z,3676
2019-01-11T13:59:54.186Z,3600
2019-01-11T14:00:34.745Z,3532
2019-01-11T14:01:15.268Z,3456
2019-01-11T14:01:55.811Z,3384
2019-01-11T14:02:36.371Z,3348
2019-01-11T14:03:16.913Z,3292
2019-01-11T14:03:57.439Z,3256
2019-01-11T14:04:37.984Z,3228
2019-01-11T14:05:18.518Z,3208
2019-01-11T14:05:59.052Z,3144
2019-01-11T14:06:39.584Z,3092
2019-01-11T14:07:20.110Z,3036
2019-01-11T14:08:00.651Z,3012
2019-01-11T14:08:41.198Z,3036
2019-01-11T14:09:21.749Z,3064
2019-01-11T14:10:02.292Z,3080
2019-01-11T14:10:42.817Z,3084
2019-01-11T14:11:23.353Z,3104
2019-01-11T14:12:03.882Z,3128
2019-01-11T14:12:44.415Z,3124
2019-01-11T14:13:24.956Z,3100
2019-01-11T14:14:05.471Z,3080
2019-01-11T14:14:46.010Z,3040
2019-01-11T14:15:26.552Z,2984
2019-01-11T14:16:07.112Z,2908
2019-01-11T14:19:21.134Z,2380
2019-01-11T14:20:01.669Z,2396
2019-01-11T14:20:42.191Z,2452
2019-01-11T14:21:22.898Z,2536
2019-01-11T14:22:03.453Z,2576
2019-01-11T14:22:43.996Z,2588
2019-01-11T14:23:24.518Z,2636
2019-01-11T14:24:05.051Z,2668
2019-01-11T14:24:45.580Z,2684
2019-01-11T14:25:26.144Z,2680
2019-01-11T14:26:06.678Z,2676
2019-01-11T14:26:47.213Z,2672
2019-01-11T14:27:27.745Z,2676
2019-01-11T14:28:08.268Z,2864
2019-01-11T14:28:48.797Z,2848
2019-01-11T14:29:29.320Z,2816
2019-01-11T14:30:09.857Z,2748
2019-01-11T14:30:50.404Z,2676
2019-01-11T14:31:30.949Z,2604
2019-01-11T14:32:11.474Z,2540
2019-01-11T14:32:52.007Z,2480
2019-01-11T14:33:32.540Z,2424
2019-01-11T14:34:13.067Z,2356
2019-01-11T14:34:53.595Z,2276
2019-01-11T14:35:34.117Z,2180
2019-01-11T14:36:14.631Z,2076
2019-01-11T14:36:55.477Z,2004
2019-01-11T14:37:35.692Z,1948
2019-01-11T14:38:16.236Z,1912
2019-01-11T14:38:56.767Z,1876
2019-01-11T14:39:37.287Z,1840
2019-01-11T14:40:17.822Z,1784
2019-01-11T14:40:58.378Z,1728
2019-01-11T14:41:38.908Z,1676
2019-01-11T14:42:19.440Z,1624
2019-01-11T14:42:59.989Z,1580
2019-01-11T14:43:40.511Z,1580
2019-01-11T14:44:21.030Z,1552
2019-01-11T14:45:01.562Z,1520
2019-01-11T14:45:42.101Z,1480
2019-01-11T14:46:22.639Z,1448
2019-01-11T14:47:03.249Z,1424
2019-01-11T14:47:43.836Z,1412
2019-01-11T14:48:24.707Z,1416
2019-01-11T14:49:05.618Z,1396
2019-01-11T14:49:46.842Z,1408
2019-01-11T14:50:27.787Z,1420
2019-01-11T14:51:08.889Z,1424
2019-01-11T14:51:49.801Z,1416
2019-01-11T14:52:31.248Z,1408
2019-01-11T14:53:12.246Z,1408
2019-01-11T14:53:52.863Z,1404
2019-01-11T14:54:33.482Z,1412
2019-01-11T14:55:14.069Z,1420
2019-01-11T14:55:56.204Z,1424
2019-01-11T14:56:35.345Z,1416
2019-01-11T14:57:15.937Z,1404
2019-01-11T14:57:56.470Z,1392
2019-01-11T14:58:36.998Z,1384
2019-01-11T14:59:17.519Z,1372
2019-01-11T14:59:58.043Z,1348
2019-01-11T15:00:38.562Z,1304
2019-01-11T15:01:19.084Z,1244
2019-01-11T15:01:59.607Z,1180
2019-01-11T15:02:40.123Z,1112
2019-01-11T15:03:20.643Z,1044
2019-01-11T15:04:01.166Z,972
2019-01-11T15:04:41.693Z,908
2019-01-11T15:05:22.216Z,844
2019-01-11T15:06:02.738Z,788
2019-01-11T15:06:43.520Z,748
2019-01-11T15:07:24.042Z,708
2019-01-11T15:08:04.570Z,680
2019-01-11T15:08:45.087Z,660
2019-01-11T15:09:25.603Z,644
2019-01-11T15:10:06.129Z,628
2019-01-11T15:10:46.656Z,612
2019-01-11T15:11:27.175Z,600
2019-01-11T15:12:07.698Z,592
2019-01-11T15:12:48.219Z,576
2019-01-11T15:13:28.741Z,568
2019-01-11T15:14:09.263Z,556
2019-01-11T15:14:49.788Z,544
2019-01-11T15:15:30.308Z,528
2019-01-11T15:16:10.825Z,520
2019-01-11T15:16:51.347Z,504
2019-01-11T15:17:31.870Z,492
2019-01-11T15:18:12.390Z,472
2019-01-11T15:18:52.916Z,456
2019-01-11T15:19:33.439Z,436
2019-01-11T15:20:13.963Z,412
2019-01-11T15:20:54.484Z,380
2019-01-11T15:21:35.005Z,360
2019-01-11T15:22:15.525Z,340
2019-01-11T15:22:56.042Z,320
2019-01-11T15:23:36.560Z,308
2019-01-11T15:24:17.083Z,292
2019-01-11T15:24:57.601Z,284
2019-01-11T15:25:38.147Z,280
2019-01-11T15:26:18.667Z,268
2019-01-11T15:26:59.186Z,268
2019-01-11T15:27:39.704Z,260
2019-01-11T15:28:20.225Z,256
2019-01-11T15:29:00.749Z,248
2019-01-11T15:29:41.280Z,240
2019-01-11T15:30:21.822Z,232
2019-01-11T15:31:02.352Z,220
2019-01-11T15:31:42.856Z,212
2019-01-11T15:32:23.367Z,204
2019-01-11T15:33:03.899Z,196
2019-01-11T15:33:44.417Z,184
2019-01-11T15:34:24.936Z,180
2019-01-11T15:35:05.483Z,168
2019-01-11T15:35:46.012Z,160
2019-01-11T15:36:26.539Z,148
2019-01-11T15:37:07.064Z,144
2019-01-11T15:37:47.579Z,128
2019-01-11T15:38:28.108Z,124
2019-01-11T15:39:08.637Z,116
2019-01-11T15:39:49.163Z,108
2019-01-11T15:40:29.687Z,104
2019-01-11T15:41:10.211Z,96
2019-01-11T15:41:50.741Z,92
2019-01-11T15:42:31.255Z,84
2019-01-11T15:43:11.771Z,84
2019-01-11T15:43:52.299Z,80
2019-01-11T15:44:32.826Z,72
2019-01-11T15:45:13.341Z,68
2019-01-11T15:45:53.868Z,64
2019-01-11T15:46:34.395Z,60